createdAt,value
2023-12-26T00:03:31.184Z,98792.03
2023-12-26T00:05:58.297Z,98762.41
2023-12-26T00:08:27.463Z,98746.78
2023-12-26T00:10:54.222Z,98774.28
2023-12-26T00:13:21.034Z,98780.06
2023-12-26T00:15:47.935Z,98772.19
2023-12-26T00:18:14.896Z,98745.06
2023-12-26T00:20:44.768Z,98761.88
2023-12-26T00:23:11.800Z,98744.63
2023-12-26T00:25:38.662Z,98761.69
2023-12-26T00:28:05.791Z,98746.47
2023-12-26T00:30:32.662Z,98750.00
2023-12-26T00:32:59.678Z,98749.06
2023-12-26T00:35:26.658Z,98760.63
2023-12-26T00:37:53.451Z,98763.72
2023-12-26T00:40:20.273Z,98727.31
2023-12-26T00:42:47.083Z,98759.47
2023-12-26T00:45:15.401Z,98717.53
2023-12-26T00:47:42.414Z,98759.63
2023-12-26T00:50:13.328Z,98756.56
2023-12-26T00:52:40.300Z,98764.31
2023-12-26T00:55:07.861Z,98768.66
2023-12-26T00:57:34.690Z,98754.59
2023-12-26T01:00:02.338Z,98771.28
2023-12-26T01:02:29.238Z,98749.59
2023-12-26T01:04:57.686Z,98764.16
2023-12-26T01:07:24.520Z,98785.03
2023-12-26T01:09:51.652Z,98781.75
2023-12-26T01:12:18.550Z,98788.78
2023-12-26T01:14:46.045Z,98792.34
2023-12-26T01:17:13.015Z,98783.63
2023-12-26T01:19:39.961Z,98776.81
2023-12-26T01:22:06.878Z,98760.53
2023-12-26T01:24:33.664Z,98794.31
2023-12-26T01:27:00.497Z,98787.97
2023-12-26T01:29:27.278Z,98787.13
2023-12-26T01:31:54.143Z,98794.81
2023-12-26T01:34:22.862Z,98784.59
2023-12-26T01:36:49.697Z,98764.63
2023-12-26T01:39:17.403Z,98778.47
2023-12-26T01:41:44.247Z,98780.59
2023-12-26T01:44:11.167Z,98789.41
2023-12-26T01:46:38.501Z,98791.00
2023-12-26T01:49:05.642Z,98791.34
2023-12-26T01:51:32.833Z,98786.03
2023-12-26T01:54:00.791Z,98793.69
2023-12-26T01:56:28.410Z,98786.50
2023-12-26T01:58:55.362Z,98761.59
2023-12-26T02:01:22.796Z,98785.66
2023-12-26T02:03:50.057Z,98761.50
2023-12-26T02:06:16.983Z,98768.66
2023-12-26T02:08:43.915Z,98756.44
2023-12-26T02:11:10.754Z,98787.56
2023-12-26T02:13:38.197Z,98783.59
2023-12-26T02:16:14.453Z,98750.28
2023-12-26T02:18:41.985Z,98782.75
2023-12-26T02:21:09.056Z,98780.81
2023-12-26T02:23:38.222Z,98771.94
2023-12-26T02:26:06.303Z,98791.50
2023-12-26T02:28:34.414Z,98788.25
2023-12-26T02:31:05.912Z,98755.75
2023-12-26T02:33:33.744Z,98758.72
2023-12-26T02:36:01.670Z,98755.22
2023-12-26T02:38:28.744Z,98783.19
2023-12-26T02:40:55.672Z,98768.84
2023-12-26T02:43:23.680Z,98770.41
2023-12-26T02:45:50.612Z,98765.75
2023-12-26T02:48:20.722Z,98749.75
2023-12-26T02:50:48.736Z,98762.09
2023-12-26T02:53:15.925Z,98766.19
2023-12-26T02:55:43.546Z,98769.16
2023-12-26T02:58:11.167Z,98760.84
2023-12-26T03:00:38.263Z,98756.06
2023-12-26T03:03:05.615Z,98753.41
2023-12-26T03:05:32.528Z,98727.63
2023-12-26T03:08:00.595Z,98760.53
2023-12-26T03:10:27.376Z,98759.94
2023-12-26T03:12:54.534Z,98747.19
2023-12-26T03:15:21.688Z,98751.25
2023-12-26T03:17:48.589Z,98750.00
2023-12-26T03:20:15.634Z,98750.94
2023-12-26T03:22:42.574Z,98745.78
2023-12-26T03:25:09.591Z,98751.97
2023-12-26T03:27:36.403Z,98741.69
2023-12-26T03:30:03.476Z,98723.84
2023-12-26T03:32:30.336Z,98749.03
2023-12-26T03:34:57.247Z,98711.75
2023-12-26T03:37:24.086Z,98751.81
2023-12-26T03:39:50.866Z,98749.00
2023-12-26T03:42:17.773Z,98746.19
2023-12-26T03:44:48.114Z,98745.66
2023-12-26T03:47:15.353Z,98728.50
2023-12-26T03:49:42.478Z,98743.66
2023-12-26T03:52:09.285Z,98734.94
2023-12-26T03:54:36.115Z,98745.50
2023-12-26T03:57:03.967Z,98712.47
2023-12-26T03:59:30.879Z,98725.53
2023-12-26T04:01:57.651Z,98722.00
2023-12-26T04:04:24.575Z,98738.16
2023-12-26T04:06:51.395Z,98725.22
2023-12-26T04:09:19.982Z,98711.31
2023-12-26T04:11:47.206Z,98722.53
2023-12-26T04:14:14.112Z,98710.97
2023-12-26T04:16:43.397Z,98711.81
2023-12-26T04:19:10.848Z,98697.91
2023-12-26T04:21:37.804Z,98712.22
2023-12-26T04:24:05.009Z,98714.09
2023-12-26T04:26:31.891Z,98698.94
2023-12-26T04:28:58.876Z,98686.75
2023-12-26T04:31:26.786Z,98717.28
2023-12-26T04:33:53.863Z,98704.31
2023-12-26T04:36:20.987Z,98716.72
2023-12-26T04:38:47.860Z,98680.84
2023-12-26T04:41:14.734Z,98715.38
2023-12-26T04:43:41.609Z,98704.97
2023-12-26T04:46:08.649Z,98724.66
2023-12-26T04:48:36.184Z,98700.75
2023-12-26T04:51:03.727Z,98726.56
2023-12-26T04:53:30.626Z,98703.28
2023-12-26T04:55:57.429Z,98723.44
2023-12-26T04:58:24.261Z,98726.25
2023-12-26T05:00:51.096Z,98694.31
2023-12-26T05:03:18.043Z,98735.31
2023-12-26T05:05:45.078Z,98724.19
2023-12-26T05:08:11.910Z,98705.50
2023-12-26T05:10:38.687Z,98732.28
2023-12-26T05:13:05.477Z,98722.66
2023-12-26T05:15:32.699Z,98723.72
2023-12-26T05:17:59.496Z,98739.91
2023-12-26T05:20:30.941Z,98733.25
2023-12-26T05:22:59.293Z,98724.56
2023-12-26T05:25:27.467Z,98737.81
2023-12-26T05:27:54.484Z,98709.56
2023-12-26T05:30:21.456Z,98723.75
2023-12-26T05:32:48.690Z,98738.06
2023-12-26T05:35:15.707Z,98711.50
2023-12-26T05:37:42.676Z,98743.59
2023-12-26T05:40:09.816Z,98744.06
2023-12-26T05:42:36.598Z,98743.41
2023-12-26T05:45:05.042Z,98732.88
2023-12-26T05:47:32.215Z,98738.47
2023-12-26T05:50:00.892Z,98749.81
2023-12-26T05:52:28.488Z,98726.56
2023-12-26T05:54:56.513Z,98739.91
2023-12-26T05:57:23.419Z,98737.81
2023-12-26T05:59:50.841Z,98734.56
2023-12-26T06:02:17.770Z,98730.53
2023-12-26T06:04:44.564Z,98729.09
2023-12-26T06:07:13.240Z,98735.16
2023-12-26T06:09:40.100Z,98742.25
2023-12-26T06:12:07.253Z,98727.41
2023-12-26T06:14:34.140Z,98751.88
2023-12-26T06:17:02.221Z,98726.47
2023-12-26T06:19:29.321Z,98712.88
2023-12-26T06:21:56.273Z,98752.84
2023-12-26T06:24:25.300Z,98735.88
2023-12-26T06:26:52.756Z,98767.16
2023-12-26T06:29:19.584Z,98764.81
2023-12-26T06:31:46.362Z,98772.38
2023-12-26T06:34:13.366Z,98774.50
2023-12-26T06:36:40.141Z,98786.59
2023-12-26T06:39:07.157Z,98749.47
2023-12-26T06:41:33.943Z,98763.66
2023-12-26T06:44:00.706Z,98789.38
2023-12-26T06:46:27.733Z,98780.81
2023-12-26T06:48:54.691Z,98764.91
2023-12-26T06:51:21.591Z,98795.53
2023-12-26T06:53:49.476Z,98803.56
2023-12-26T06:56:16.383Z,98796.78
2023-12-26T06:58:43.269Z,98793.19
2023-12-26T07:01:10.994Z,98817.25
2023-12-26T07:03:38.025Z,98822.28
2023-12-26T07:06:05.041Z,98813.25
2023-12-26T07:08:32.103Z,98821.00
2023-12-26T07:10:58.922Z,98805.72
2023-12-26T07:13:25.697Z,98814.56
2023-12-26T07:15:53.582Z,98831.72
2023-12-26T07:18:20.616Z,98847.06
2023-12-26T07:20:47.502Z,98860.44
2023-12-26T07:23:14.342Z,98860.16
2023-12-26T07:25:42.551Z,98858.88
2023-12-26T07:28:09.756Z,98871.72
2023-12-26T07:30:36.667Z,98870.41
2023-12-26T07:33:03.879Z,98882.25
2023-12-26T07:35:32.116Z,98885.78
2023-12-26T07:37:58.844Z,98887.03
2023-12-26T07:40:25.672Z,98902.66
2023-12-26T07:42:52.828Z,98886.19
2023-12-26T07:45:24.652Z,98884.78
2023-12-26T07:47:51.762Z,98914.06
2023-12-26T07:50:18.864Z,98922.53
2023-12-26T07:52:46.225Z,98904.22
2023-12-26T07:55:14.317Z,98924.22
2023-12-26T07:57:41.945Z,98955.47
2023-12-26T08:00:11.150Z,98952.78
2023-12-26T08:02:38.009Z,98948.84
2023-12-26T08:05:05.004Z,98943.47
2023-12-26T08:07:31.801Z,98960.66
2023-12-26T08:09:58.558Z,98959.97
2023-12-26T08:12:25.394Z,98940.38
2023-12-26T08:14:52.219Z,98940.78
2023-12-26T08:17:19.120Z,98971.06
2023-12-26T08:19:46.110Z,98988.16
2023-12-26T08:22:12.833Z,98998.25
2023-12-26T08:24:39.709Z,98985.47
2023-12-26T08:27:06.494Z,99002.22
2023-12-26T08:29:33.284Z,99009.56
2023-12-26T08:32:00.052Z,99004.47
2023-12-26T08:34:27.258Z,98998.41
2023-12-26T08:36:54.163Z,99022.22
2023-12-26T08:39:28.299Z,98993.06
2023-12-26T08:41:55.149Z,99025.28
2023-12-26T08:44:22.173Z,99031.09
2023-12-26T08:46:51.765Z,99036.88
2023-12-26T08:49:18.644Z,99043.38
2023-12-26T08:51:45.436Z,99060.13
2023-12-26T08:54:13.246Z,99051.38
2023-12-26T08:56:41.165Z,99053.22
2023-12-26T08:59:08.950Z,99027.97
2023-12-26T09:01:37.244Z,99053.22
2023-12-26T09:04:05.095Z,99072.94
2023-12-26T09:06:32.337Z,99069.13
2023-12-26T09:08:59.348Z,99073.78
2023-12-26T09:11:26.285Z,99080.13
2023-12-26T09:13:53.449Z,99080.41
2023-12-26T09:16:20.215Z,99100.84
2023-12-26T09:18:47.056Z,99080.84
2023-12-26T09:21:14.966Z,99094.78
2023-12-26T09:23:41.910Z,99101.13
2023-12-26T09:26:08.932Z,99090.72
2023-12-26T09:28:35.699Z,99103.94
2023-12-26T09:31:02.661Z,99122.69
2023-12-26T09:33:29.632Z,99107.91
2023-12-26T09:35:56.561Z,99103.69
2023-12-26T09:38:23.302Z,99111.97
2023-12-26T09:40:50.081Z,99113.56
2023-12-26T09:43:17.094Z,99123.97
2023-12-26T09:45:43.872Z,99120.31
2023-12-26T09:48:12.875Z,99098.31
2023-12-26T09:50:40.040Z,99142.00
2023-12-26T09:53:09.830Z,99134.44
2023-12-26T09:55:36.684Z,99142.88
2023-12-26T09:58:03.787Z,99128.63
2023-12-26T10:00:31.191Z,99147.09
2023-12-26T10:02:59.100Z,99140.78
2023-12-26T10:05:27.359Z,99134.41
2023-12-26T10:07:54.498Z,99099.69
2023-12-26T10:10:22.070Z,99125.09
2023-12-26T10:12:49.945Z,99118.19
2023-12-26T10:15:17.725Z,99129.19
2023-12-26T10:17:45.154Z,99100.72
2023-12-26T10:20:18.751Z,99119.72
2023-12-26T10:22:46.517Z,99114.97
2023-12-26T10:25:14.498Z,99102.09
2023-12-26T10:27:41.932Z,99121.28
2023-12-26T10:30:09.395Z,99135.78
2023-12-26T10:32:36.658Z,99126.06
2023-12-26T10:35:16.868Z,99135.94
2023-12-26T10:37:44.014Z,99138.91
2023-12-26T10:40:11.312Z,99126.84
2023-12-26T10:42:40.784Z,99128.63
2023-12-26T10:45:10.144Z,99127.63
2023-12-26T10:47:40.101Z,99122.91
2023-12-26T10:50:10.213Z,99130.38
2023-12-26T10:52:41.651Z,99097.84
2023-12-26T10:55:09.626Z,99112.16
2023-12-26T10:57:37.535Z,99127.69
2023-12-26T11:00:51.277Z,99119.59
2023-12-26T11:04:14.389Z,99123.31
2023-12-26T11:07:37.690Z,99119.50
2023-12-26T11:11:00.742Z,99118.63
2023-12-26T11:14:27.220Z,99125.16
2023-12-26T11:17:50.275Z,99128.19
2023-12-26T11:21:13.293Z,99127.44
2023-12-26T11:24:36.676Z,99120.09
2023-12-26T11:27:59.653Z,99119.22
2023-12-26T11:31:22.735Z,99122.59
2023-12-26T11:34:46.137Z,99117.09
2023-12-26T11:38:09.163Z,99115.09
2023-12-26T11:41:32.664Z,99098.00
2023-12-26T11:44:55.696Z,99099.72
2023-12-26T11:48:18.839Z,99101.84
2023-12-26T11:51:41.927Z,99111.31
2023-12-26T11:55:04.945Z,99115.00
2023-12-26T11:58:28.024Z,99119.06
2023-12-26T12:01:51.170Z,99111.31
2023-12-26T12:05:14.189Z,99110.00
2023-12-26T12:08:37.214Z,99110.72
2023-12-26T12:12:00.101Z,99114.72
2023-12-26T12:15:23.154Z,99116.13
2023-12-26T12:18:46.515Z,99116.81
2023-12-26T12:22:09.565Z,99107.00
2023-12-26T12:25:32.761Z,99114.44
2023-12-26T12:28:56.196Z,99113.16
2023-12-26T12:32:19.284Z,99113.81
2023-12-26T12:35:42.636Z,99118.38
2023-12-26T12:39:05.420Z,99122.19
2023-12-26T12:42:28.585Z,99121.00
2023-12-26T12:45:51.776Z,99125.31
2023-12-26T12:49:17.084Z,99122.28
2023-12-26T12:52:41.972Z,99133.91
2023-12-26T12:56:04.624Z,99134.53
2023-12-26T12:59:27.834Z,99130.00
2023-12-26T13:02:50.768Z,99145.47
2023-12-26T13:06:14.091Z,99141.44
2023-12-26T13:09:37.281Z,99137.19
2023-12-26T13:13:00.302Z,99135.13
2023-12-26T13:16:23.047Z,99131.16
2023-12-26T13:19:45.804Z,99130.47
2023-12-26T13:23:08.695Z,99125.94
2023-12-26T13:26:31.814Z,99117.56
2023-12-26T13:29:54.794Z,99099.41
2023-12-26T13:33:18.156Z,99095.50
2023-12-26T13:36:41.454Z,99106.75
2023-12-26T13:40:04.206Z,99117.47
2023-12-26T13:43:35.213Z,99116.16
2023-12-26T13:46:59.999Z,99120.50
2023-12-26T13:50:23.026Z,99140.31
2023-12-26T13:52:50.071Z,99140.66
2023-12-26T13:55:16.912Z,99146.44
2023-12-26T13:57:43.566Z,99148.03
2023-12-26T14:00:10.620Z,99135.34
2023-12-26T14:02:37.368Z,99139.44
2023-12-26T14:05:04.253Z,99141.09
2023-12-26T14:07:33.041Z,99128.53
2023-12-26T14:10:00.534Z,99154.63
2023-12-26T14:12:28.954Z,99130.06
2023-12-26T14:14:55.783Z,99164.88
2023-12-26T14:17:22.587Z,99154.78
2023-12-26T14:19:49.403Z,99181.03
2023-12-26T14:22:16.894Z,99170.44
2023-12-26T14:24:43.594Z,99190.47
2023-12-26T14:27:10.447Z,99188.44
2023-12-26T14:29:37.193Z,99174.91
2023-12-26T14:32:04.268Z,99187.50
2023-12-26T14:34:31.134Z,99192.25
2023-12-26T14:36:57.912Z,99198.38
2023-12-26T14:39:24.721Z,99192.94
2023-12-26T14:41:51.510Z,99186.66
2023-12-26T14:44:18.325Z,99190.41
2023-12-26T14:46:45.080Z,99185.63
2023-12-26T14:49:12.242Z,99181.44
2023-12-26T14:51:39.141Z,99168.59
2023-12-26T14:54:05.921Z,99167.75
2023-12-26T14:56:35.027Z,99169.97
2023-12-26T14:59:03.407Z,99163.81
2023-12-26T15:01:30.607Z,99156.41
2023-12-26T15:03:58.896Z,99176.53
2023-12-26T15:06:25.765Z,99171.63
2023-12-26T15:08:52.781Z,99181.09
2023-12-26T15:11:22.651Z,99165.84
2023-12-26T15:13:56.182Z,99124.66
2023-12-26T15:16:32.368Z,99173.47
2023-12-26T15:18:59.311Z,99173.34
2023-12-26T15:21:26.237Z,99191.81
2023-12-26T15:23:53.142Z,99210.75
2023-12-26T15:26:20.139Z,99190.81
2023-12-26T15:28:46.865Z,99169.09
2023-12-26T15:31:17.705Z,99180.97
2023-12-26T15:33:45.561Z,99155.97
2023-12-26T15:36:23.558Z,99157.81
2023-12-26T15:38:51.198Z,99180.78
2023-12-26T15:41:22.299Z,99178.53
2023-12-26T15:43:49.110Z,99168.50
2023-12-26T15:46:24.928Z,99190.66
2023-12-26T15:48:53.577Z,99180.91
2023-12-26T15:51:23.239Z,99211.06
2023-12-26T15:53:51.051Z,99208.97
2023-12-26T15:56:29.047Z,99198.13
2023-12-26T15:58:56.121Z,99210.97
2023-12-26T16:01:22.972Z,99221.41
2023-12-26T16:03:52.157Z,99229.59
2023-12-26T16:06:20.255Z,99239.78
2023-12-26T16:08:47.171Z,99242.72
2023-12-26T16:11:15.211Z,99257.41
2023-12-26T16:13:44.787Z,99257.63
2023-12-26T16:16:12.290Z,99259.13
2023-12-26T16:18:42.890Z,99254.47
2023-12-26T16:21:10.075Z,99251.69
2023-12-26T16:23:37.058Z,99251.44
2023-12-26T16:26:07.926Z,99257.69
2023-12-26T16:28:35.713Z,99251.00
2023-12-26T16:31:06.942Z,99272.69
2023-12-26T16:33:34.761Z,99271.19
2023-12-26T16:36:02.975Z,99250.81
2023-12-26T16:38:30.508Z,99255.50
2023-12-26T16:41:00.991Z,99264.81
2023-12-26T16:43:27.803Z,99271.31
2023-12-26T16:45:54.547Z,99277.28
2023-12-26T16:48:21.745Z,99264.81
2023-12-26T16:50:48.701Z,99255.50
2023-12-26T16:53:15.529Z,99267.94
2023-12-26T16:55:42.304Z,99281.03
2023-12-26T16:58:09.494Z,99257.75
2023-12-26T17:00:39.190Z,99290.38
2023-12-26T17:03:06.431Z,99296.44
2023-12-26T17:05:33.489Z,99284.56
2023-12-26T17:08:00.354Z,99272.56
2023-12-26T17:10:27.169Z,99283.03
2023-12-26T17:12:54.079Z,99281.19
2023-12-26T17:15:21.070Z,99288.94
2023-12-26T17:17:48.127Z,99254.75
2023-12-26T17:20:15.070Z,99273.84
2023-12-26T17:22:42.794Z,99309.44
2023-12-26T17:25:09.977Z,99308.91
2023-12-26T17:27:36.909Z,99313.19
2023-12-26T17:30:05.194Z,99321.19
2023-12-26T17:32:32.334Z,99330.09
2023-12-26T17:34:59.359Z,99331.03
2023-12-26T17:37:26.210Z,99337.47
2023-12-26T17:39:53.178Z,99307.75
2023-12-26T17:42:23.391Z,99343.44
2023-12-26T17:44:50.690Z,99331.13
2023-12-26T17:47:17.523Z,99338.22
2023-12-26T17:49:44.470Z,99334.75
2023-12-26T17:52:11.454Z,99350.38
2023-12-26T17:54:38.257Z,99354.13
2023-12-26T17:57:05.478Z,99363.59
2023-12-26T17:59:32.357Z,99358.75
2023-12-26T18:01:59.072Z,99370.44
2023-12-26T18:04:29.124Z,99384.69
2023-12-26T18:06:56.279Z,99379.09
2023-12-26T18:09:23.178Z,99387.88
2023-12-26T18:11:49.986Z,99407.22
2023-12-26T18:14:17.457Z,99391.56
2023-12-26T18:16:44.229Z,99381.25
2023-12-26T18:19:11.308Z,99390.22
2023-12-26T18:21:46.134Z,99400.50
2023-12-26T18:24:14.496Z,99407.97
2023-12-26T18:26:41.943Z,99388.06
2023-12-26T18:29:10.286Z,99398.97
2023-12-26T18:31:37.380Z,99404.47
2023-12-26T18:34:04.919Z,99400.97
2023-12-26T18:36:31.982Z,99409.72
2023-12-26T18:38:58.866Z,99418.13
2023-12-26T18:41:25.721Z,99397.31
2023-12-26T18:43:52.515Z,99423.44
2023-12-26T18:46:20.869Z,99434.06
2023-12-26T18:48:48.282Z,99440.59
2023-12-26T18:51:24.458Z,99421.63
2023-12-26T18:53:52.640Z,99379.06
2023-12-26T18:56:19.696Z,99443.75
2023-12-26T18:58:47.482Z,99437.09
2023-12-26T19:01:14.838Z,99441.19
2023-12-26T19:03:42.960Z,99455.81
2023-12-26T19:06:10.174Z,99448.50
2023-12-26T19:08:37.241Z,99410.72
2023-12-26T19:11:04.279Z,99464.69
2023-12-26T19:13:31.192Z,99459.47
2023-12-26T19:15:58.133Z,99442.22
2023-12-26T19:18:25.657Z,99473.84
2023-12-26T19:20:52.621Z,99457.25
2023-12-26T19:23:19.475Z,99454.75
2023-12-26T19:25:46.698Z,99471.22
2023-12-26T19:28:13.546Z,99450.97
2023-12-26T19:30:41.983Z,99469.06
2023-12-26T19:33:10.157Z,99465.28
2023-12-26T19:35:37.417Z,99465.47
2023-12-26T19:38:04.456Z,99447.13
2023-12-26T19:40:31.404Z,99445.97
2023-12-26T19:42:59.579Z,99444.31
2023-12-26T19:45:26.942Z,99457.72
2023-12-26T19:47:54.529Z,99452.88
2023-12-26T19:50:22.039Z,99450.00
2023-12-26T19:52:49.270Z,99475.69
2023-12-26T19:55:17.685Z,99475.56
2023-12-26T19:57:45.248Z,99476.03
2023-12-26T20:00:14.676Z,99455.34
2023-12-26T20:02:42.094Z,99472.09
2023-12-26T20:05:10.740Z,99469.16
2023-12-26T20:07:39.278Z,99466.28
2023-12-26T20:10:06.747Z,99486.09
2023-12-26T20:12:34.608Z,99476.00
2023-12-26T20:15:02.325Z,99502.03
2023-12-26T20:17:29.836Z,99485.00
2023-12-26T20:19:57.055Z,99486.84
2023-12-26T20:22:24.375Z,99468.00
2023-12-26T20:24:54.996Z,99471.47
2023-12-26T20:27:22.577Z,99483.66
2023-12-26T20:29:50.061Z,99491.41
2023-12-26T20:32:17.297Z,99505.09
2023-12-26T20:34:44.700Z,99504.59
2023-12-26T20:37:12.233Z,99503.41
2023-12-26T20:39:39.634Z,99506.03
2023-12-26T20:42:07.428Z,99512.97
2023-12-26T20:44:35.452Z,99514.66
2023-12-26T20:47:03.239Z,99506.03
2023-12-26T20:49:31.168Z,99514.53
2023-12-26T20:51:58.751Z,99518.22
2023-12-26T20:54:27.299Z,99530.84
2023-12-26T20:56:54.951Z,99541.44
2023-12-26T20:59:23.148Z,99529.50
2023-12-26T21:01:49.959Z,99539.03
2023-12-26T21:04:18.220Z,99559.41
2023-12-26T21:06:48.490Z,99552.50
2023-12-26T21:09:15.553Z,99541.63
2023-12-26T21:11:42.582Z,99540.13
2023-12-26T21:14:12.017Z,99546.72
2023-12-26T21:16:38.749Z,99546.34
2023-12-26T21:19:07.012Z,99560.44
2023-12-26T21:21:35.452Z,99566.34
2023-12-26T21:24:02.253Z,99531.31
2023-12-26T21:26:30.121Z,99552.19
2023-12-26T21:29:00.315Z,99562.47
2023-12-26T21:31:27.788Z,99557.63
2023-12-26T21:33:54.688Z,99543.84
2023-12-26T21:36:23.668Z,99564.75
2023-12-26T21:38:51.105Z,99570.81
2023-12-26T21:41:18.739Z,99573.56
2023-12-26T21:43:46.387Z,99572.50
2023-12-26T21:46:13.902Z,99563.81
2023-12-26T21:48:43.234Z,99559.75
2023-12-26T21:51:11.834Z,99566.91
2023-12-26T21:53:39.841Z,99568.56
2023-12-26T21:56:24.987Z,99552.50
2023-12-26T21:58:51.735Z,99546.72
2023-12-26T22:01:26.317Z,99565.88
2023-12-26T22:03:53.334Z,99572.38
2023-12-26T22:06:20.162Z,99579.19
2023-12-26T22:08:46.943Z,99576.38
2023-12-26T22:11:13.664Z,99575.91
2023-12-26T22:13:40.416Z,99588.94
2023-12-26T22:16:07.245Z,99576.88
2023-12-26T22:18:34.297Z,99599.00
2023-12-26T22:21:01.193Z,99593.69
2023-12-26T22:23:27.922Z,99590.56
2023-12-26T22:25:54.698Z,99599.59
2023-12-26T22:28:21.367Z,99610.81
2023-12-26T22:30:48.160Z,99613.16
2023-12-26T22:33:15.204Z,99609.59
2023-12-26T22:35:42.823Z,99622.13
2023-12-26T22:38:09.931Z,99615.78
2023-12-26T22:40:36.639Z,99626.59
2023-12-26T22:43:03.395Z,99629.22
2023-12-26T22:45:31.591Z,99627.03
2023-12-26T22:47:58.769Z,99636.00
2023-12-26T22:50:25.851Z,99640.38
2023-12-26T22:52:53.299Z,99644.81
2023-12-26T22:55:20.128Z,99642.69
2023-12-26T22:57:46.875Z,99637.09
2023-12-26T23:00:21.017Z,99647.31
2023-12-26T23:02:48.113Z,99649.66
2023-12-26T23:05:16.525Z,99650.66
2023-12-26T23:07:44.023Z,99649.97
2023-12-26T23:10:10.708Z,99661.13
2023-12-26T23:12:37.555Z,99650.84
2023-12-26T23:15:04.661Z,99653.56
2023-12-26T23:17:31.457Z,99648.44
2023-12-26T23:19:58.367Z,99643.13
2023-12-26T23:22:26.535Z,99641.63
2023-12-26T23:24:53.360Z,99654.66
2023-12-26T23:27:20.317Z,99659.66
2023-12-26T23:29:47.202Z,99650.13
2023-12-26T23:32:13.920Z,99655.97
2023-12-26T23:34:47.698Z,99658.81
2023-12-26T23:37:16.694Z,99650.50
2023-12-26T23:39:44.426Z,99658.84
2023-12-26T23:42:11.795Z,99663.38
2023-12-26T23:44:38.626Z,99651.09
2023-12-26T23:47:05.423Z,99662.78
2023-12-26T23:49:32.380Z,99664.97
2023-12-26T23:51:59.227Z,99668.00
2023-12-26T23:54:26.256Z,99675.53
2023-12-26T23:56:53.068Z,99663.00
2023-12-26T23:59:19.745Z,99670.81
